createdAt,value
2018-11-11T00:01:15.561Z,104.90
2018-11-11T00:03:43.608Z,150.87
2018-11-11T00:06:11.617Z,203.80
2018-11-11T00:08:39.667Z,172.90
2018-11-11T00:11:07.677Z,207.33
2018-11-11T00:13:35.686Z,144.87
2018-11-11T00:16:03.746Z,133.87
2018-11-11T00:18:31.809Z,101.83
2018-11-11T00:20:59.821Z,110.43
2018-11-11T00:23:27.887Z,134.53
2018-11-11T00:25:55.910Z,140.57
2018-11-11T00:28:23.956Z,100.70
2018-11-11T00:30:52.027Z,171.53
2018-11-11T00:33:20.086Z,99.90
2018-11-11T00:35:48.097Z,80.77
2018-11-11T00:38:16.130Z,53.20
2018-11-11T00:40:44.269Z,71.63
2018-11-11T00:43:12.273Z,92.40
2018-11-11T00:45:40.317Z,75.23
2018-11-11T00:48:08.331Z,45.00
2018-11-11T00:50:36.598Z,65.73
2018-11-11T00:53:04.841Z,54.13
2018-11-11T00:55:40.086Z,99.73
2018-11-11T00:58:08.363Z,89.90
2018-11-11T01:00:36.564Z,73.37
2018-11-11T01:03:05.049Z,47.30
2018-11-11T01:05:33.090Z,63.30
2018-11-11T01:08:01.134Z,41.93
2018-11-11T01:10:29.145Z,57.57
2018-11-11T01:12:57.199Z,125.57
2018-11-11T01:15:25.318Z,50.63
2018-11-11T01:17:53.354Z,94.70
2018-11-11T01:20:21.362Z,39.07
2018-11-11T01:22:49.369Z,55.40
2018-11-11T01:25:18.014Z,78.07
2018-11-11T01:27:46.009Z,31.00
2018-11-11T01:30:14.058Z,33.97
2018-11-11T01:32:42.099Z,47.73
2018-11-11T01:35:11.862Z,37.57
2018-11-11T01:37:40.386Z,36.63
2018-11-11T01:40:08.639Z,38.93
2018-11-11T01:42:36.815Z,45.93
2018-11-11T01:45:05.564Z,67.53
2018-11-11T01:47:33.573Z,71.53
2018-11-11T01:50:01.613Z,45.13
2018-11-11T01:52:29.654Z,36.43
2018-11-11T01:54:57.722Z,38.73
2018-11-11T01:57:25.768Z,41.70
2018-11-11T01:59:53.825Z,40.73
2018-11-11T02:02:21.830Z,40.03
2018-11-11T02:04:49.886Z,49.00
2018-11-11T02:07:17.914Z,55.83
2018-11-11T02:09:45.944Z,73.63
2018-11-11T02:12:14.062Z,60.20
2018-11-11T02:14:42.093Z,59.93
2018-11-11T02:17:10.123Z,42.73
2018-11-11T02:19:38.200Z,49.03
2018-11-11T02:22:06.279Z,52.43
2018-11-11T02:24:34.277Z,60.37
2018-11-11T02:27:02.454Z,45.13
2018-11-11T02:29:30.461Z,60.10
2018-11-11T02:31:58.601Z,62.00
2018-11-11T02:34:26.670Z,65.93
2018-11-11T02:36:54.744Z,60.37
2018-11-11T02:39:22.799Z,56.33
2018-11-11T02:41:50.851Z,41.53
2018-11-11T02:44:18.890Z,46.77
2018-11-11T02:46:46.925Z,37.00
2018-11-11T02:49:14.969Z,46.13
2018-11-11T02:51:42.985Z,46.40
2018-11-11T02:54:11.017Z,70.60
2018-11-11T02:56:39.066Z,104.33
2018-11-11T02:59:07.082Z,45.17
2018-11-11T03:01:35.138Z,55.50
2018-11-11T03:04:03.195Z,71.20
2018-11-11T03:06:31.275Z,45.20
2018-11-11T03:08:59.321Z,48.30
2018-11-11T03:11:27.343Z,57.23
2018-11-11T03:13:55.638Z,36.27
2018-11-11T03:16:23.645Z,35.70
2018-11-11T03:18:51.930Z,41.27
2018-11-11T03:21:20.110Z,42.57
2018-11-11T03:23:48.109Z,62.77
2018-11-11T03:26:16.203Z,37.77
2018-11-11T03:28:44.297Z,55.63
2018-11-11T03:31:12.318Z,49.63
2018-11-11T03:33:40.622Z,35.33
2018-11-11T03:36:08.663Z,55.27
2018-11-11T03:38:36.658Z,49.20
2018-11-11T03:41:04.714Z,45.87
2018-11-11T03:43:32.753Z,41.07
2018-11-11T03:46:00.762Z,57.97
2018-11-11T03:48:28.782Z,43.37
2018-11-11T03:50:57.150Z,47.77
2018-11-11T03:53:25.166Z,52.60
2018-11-11T03:55:53.269Z,32.93
2018-11-11T03:58:21.309Z,38.53
2018-11-11T04:00:49.366Z,53.73
2018-11-11T04:03:17.417Z,52.80
2018-11-11T04:05:45.431Z,47.63
2018-11-11T04:08:13.477Z,54.50
2018-11-11T04:10:41.537Z,49.93
2018-11-11T04:13:09.666Z,55.17
2018-11-11T04:15:37.717Z,74.97
2018-11-11T04:18:06.026Z,85.27
2018-11-11T04:20:34.062Z,48.60
2018-11-11T04:23:02.066Z,74.17
2018-11-11T04:25:30.188Z,59.43
2018-11-11T04:27:58.226Z,79.67
2018-11-11T04:30:26.240Z,77.57
2018-11-11T04:32:54.546Z,48.83
2018-11-11T04:35:22.623Z,70.23
2018-11-11T04:37:50.626Z,63.43
2018-11-11T04:40:18.681Z,68.87
2018-11-11T04:42:47.071Z,75.73
2018-11-11T04:45:16.081Z,73.97
2018-11-11T04:47:45.177Z,64.87
2018-11-11T04:50:14.320Z,54.47
2018-11-11T04:52:43.089Z,69.80
2018-11-11T04:55:11.485Z,137.27
2018-11-11T04:57:39.901Z,61.43
2018-11-11T05:00:09.223Z,64.07
2018-11-11T05:02:37.482Z,61.40
2018-11-11T05:05:05.982Z,82.90
2018-11-11T05:07:34.032Z,56.10
2018-11-11T05:10:02.101Z,78.47
2018-11-11T05:12:30.223Z,70.13
2018-11-11T05:14:58.239Z,75.73
2018-11-11T05:17:26.370Z,51.77
2018-11-11T05:19:54.386Z,66.57
2018-11-11T05:22:22.428Z,88.90
2018-11-11T05:24:50.477Z,87.57
2018-11-11T05:27:18.544Z,100.27
2018-11-11T05:29:46.566Z,140.73
2018-11-11T05:32:14.610Z,63.20
2018-11-11T05:34:42.635Z,83.00
2018-11-11T05:37:10.673Z,87.93
2018-11-11T05:39:38.778Z,47.40
2018-11-11T05:42:06.749Z,59.73
2018-11-11T05:44:34.777Z,85.27
2018-11-11T05:47:02.829Z,60.10
2018-11-11T05:49:30.869Z,45.90
2018-11-11T05:51:58.949Z,96.60
2018-11-11T05:54:26.987Z,62.77
2018-11-11T05:56:55.000Z,51.27
2018-11-11T05:59:23.251Z,60.27
2018-11-11T06:01:51.255Z,50.07
2018-11-11T06:04:19.277Z,45.13
2018-11-11T06:06:47.338Z,62.20
2018-11-11T06:09:15.379Z,58.87
2018-11-11T06:11:43.381Z,76.53
2018-11-11T06:14:11.438Z,68.63
2018-11-11T06:16:39.524Z,53.10
2018-11-11T06:19:07.566Z,50.90
2018-11-11T06:21:35.632Z,45.87
2018-11-11T06:24:03.641Z,41.20
2018-11-11T06:26:31.714Z,47.37
2018-11-11T06:29:00.110Z,42.53
2018-11-11T06:31:28.182Z,45.23
2018-11-11T06:33:56.342Z,39.63
2018-11-11T06:36:24.381Z,41.40
2018-11-11T06:38:52.400Z,48.00
2018-11-11T06:41:20.456Z,42.77
2018-11-11T06:43:48.463Z,44.67
2018-11-11T06:46:16.498Z,39.53
2018-11-11T06:48:44.581Z,38.27
2018-11-11T06:51:12.582Z,44.30
2018-11-11T06:53:40.624Z,38.33
2018-11-11T06:56:08.891Z,39.77
2018-11-11T06:58:37.019Z,39.23
2018-11-11T07:01:05.502Z,40.43
2018-11-11T07:04:00.024Z,38.43
2018-11-11T07:06:28.542Z,40.53
2018-11-11T07:08:56.606Z,40.57
2018-11-11T07:11:24.681Z,43.17
2018-11-11T07:13:52.743Z,44.83
2018-11-11T07:16:20.863Z,36.80
2018-11-11T07:18:48.899Z,36.37
2018-11-11T07:21:17.841Z,39.60
2018-11-11T07:23:46.276Z,41.30
2018-11-11T07:26:14.194Z,45.67
2018-11-11T07:28:42.209Z,38.57
2018-11-11T07:31:10.519Z,37.53
2018-11-11T07:33:38.859Z,35.40
2018-11-11T07:36:07.779Z,39.90
2018-11-11T07:38:36.075Z,34.97
2018-11-11T07:41:05.162Z,37.57
2018-11-11T07:43:33.273Z,38.60
2018-11-11T07:46:01.305Z,37.27
2018-11-11T07:48:29.345Z,37.97
2018-11-11T07:50:57.413Z,39.20
2018-11-11T07:53:25.582Z,41.00
2018-11-11T07:55:53.591Z,41.27
2018-11-11T07:58:22.013Z,44.77
2018-11-11T08:00:50.005Z,40.50
2018-11-11T08:03:18.042Z,38.37
2018-11-11T08:05:46.204Z,43.77
2018-11-11T08:08:14.280Z,44.30
2018-11-11T08:11:56.923Z,45.47
2018-11-11T08:14:25.231Z,39.60
2018-11-11T08:16:53.477Z,39.20
2018-11-11T08:19:21.518Z,35.30
2018-11-11T08:21:49.549Z,35.03
2018-11-11T08:24:18.274Z,40.40
2018-11-11T08:26:46.339Z,42.00
2018-11-11T08:29:14.468Z,39.30
2018-11-11T08:31:42.953Z,41.33
2018-11-11T08:34:11.141Z,43.37
2018-11-11T08:36:39.161Z,38.37
2018-11-11T08:39:08.898Z,37.53
2018-11-11T08:41:37.446Z,39.00
2018-11-11T08:44:05.754Z,36.40
2018-11-11T08:46:33.826Z,38.53
2018-11-11T08:49:02.014Z,39.97
2018-11-11T08:51:30.186Z,36.03
2018-11-11T08:53:58.254Z,37.77
2018-11-11T08:56:26.383Z,38.47
2018-11-11T08:58:54.554Z,37.10
2018-11-11T09:01:22.886Z,39.97
2018-11-11T09:03:51.365Z,39.50
2018-11-11T09:06:19.509Z,39.30
2018-11-11T09:08:47.625Z,38.83
2018-11-11T09:11:15.999Z,40.27
2018-11-11T09:13:44.170Z,38.13
2018-11-11T09:16:12.357Z,40.73
2018-11-11T09:18:40.635Z,41.50
2018-11-11T09:21:08.818Z,42.57
2018-11-11T09:23:36.894Z,40.00
2018-11-11T09:26:05.101Z,42.43
2018-11-11T09:28:33.156Z,38.67
2018-11-11T09:31:01.533Z,41.83
2018-11-11T09:33:29.610Z,42.13
2018-11-11T09:35:57.697Z,39.97
2018-11-11T09:38:25.702Z,44.40
2018-11-11T09:40:53.792Z,34.60
2018-11-11T09:43:21.871Z,35.90
2018-11-11T09:45:49.930Z,30.90
2018-11-11T09:48:18.070Z,36.20
2018-11-11T09:50:46.262Z,34.20
2018-11-11T09:53:14.309Z,38.73
2018-11-11T09:55:42.334Z,43.80
2018-11-11T09:58:16.974Z,35.90
2018-11-11T10:00:44.994Z,37.23
2018-11-11T10:03:17.995Z,37.33
2018-11-11T10:05:53.090Z,37.17
2018-11-11T10:08:29.153Z,36.10
2018-11-11T10:12:00.539Z,39.53
2018-11-11T10:14:33.990Z,36.57
2018-11-11T10:17:08.122Z,36.43
2018-11-11T10:19:47.541Z,36.70
2018-11-11T10:23:25.191Z,34.37
2018-11-11T10:25:58.358Z,43.17
2018-11-11T10:28:36.498Z,38.70
2018-11-11T10:32:09.011Z,32.30
2018-11-11T10:34:42.781Z,34.80
2018-11-11T10:37:16.356Z,36.77
2018-11-11T10:40:20.445Z,34.47
2018-11-11T10:42:54.101Z,35.57
2018-11-11T10:45:25.758Z,38.13
2018-11-11T10:47:57.589Z,35.13
2018-11-11T10:50:35.062Z,33.60
2018-11-11T10:53:03.073Z,38.93
2018-11-11T10:55:31.093Z,34.03
2018-11-11T10:57:59.357Z,36.60
2018-11-11T11:00:27.406Z,36.53
2018-11-11T11:02:56.751Z,38.03
2018-11-11T11:05:24.929Z,36.47
2018-11-11T11:07:53.478Z,36.03
2018-11-11T11:10:21.512Z,27.30
2018-11-11T11:12:49.698Z,34.50
2018-11-11T11:15:17.991Z,34.00
2018-11-11T11:17:46.075Z,34.63
2018-11-11T11:20:14.161Z,34.73
2018-11-11T11:22:42.178Z,33.77
2018-11-11T11:25:11.649Z,37.07
2018-11-11T11:27:40.866Z,37.67
2018-11-11T11:30:10.794Z,40.37
2018-11-11T11:32:38.898Z,44.97
2018-11-11T11:35:07.794Z,36.67
2018-11-11T11:37:36.034Z,37.00
2018-11-11T11:40:05.485Z,36.97
2018-11-11T11:42:33.568Z,35.97
2018-11-11T11:45:01.602Z,35.57
2018-11-11T11:47:29.989Z,36.37
2018-11-11T11:49:57.968Z,38.20
2018-11-11T11:52:26.005Z,36.97
2018-11-11T11:54:54.142Z,37.07
2018-11-11T11:57:22.278Z,36.90
2018-11-11T11:59:50.678Z,40.27
2018-11-11T12:02:18.737Z,41.23
2018-11-11T12:04:46.784Z,41.70
2018-11-11T12:07:15.019Z,38.70
2018-11-11T12:09:43.050Z,35.20
2018-11-11T12:12:11.162Z,32.77
2018-11-11T12:14:39.204Z,35.73
2018-11-11T12:17:07.424Z,41.23
2018-11-11T12:19:35.466Z,35.20
2018-11-11T12:22:03.557Z,36.50
2018-11-11T12:24:31.727Z,32.83
2018-11-11T12:26:59.827Z,35.13
2018-11-11T12:29:27.882Z,33.80
2018-11-11T12:31:56.794Z,33.83
2018-11-11T12:34:24.881Z,32.17
2018-11-11T12:36:52.938Z,39.80
2018-11-11T12:39:21.037Z,37.00
2018-11-11T12:41:49.054Z,36.80
2018-11-11T12:44:17.070Z,36.07
2018-11-11T12:46:45.164Z,35.90
2018-11-11T12:49:13.347Z,33.90
2018-11-11T12:51:41.347Z,36.43
2018-11-11T12:54:09.803Z,34.13
2018-11-11T12:56:37.830Z,37.83
2018-11-11T12:59:05.890Z,33.20
2018-11-11T13:01:33.958Z,34.40
2018-11-11T13:04:01.975Z,32.80
2018-11-11T13:06:30.377Z,35.30
2018-11-11T13:08:58.458Z,41.93
2018-11-11T13:11:26.513Z,36.03
2018-11-11T13:13:54.623Z,39.20
2018-11-11T13:16:22.686Z,38.77
2018-11-11T13:18:50.845Z,42.20
2018-11-11T13:21:18.865Z,38.90
2018-11-11T13:23:46.990Z,36.83
2018-11-11T13:26:15.005Z,41.93
2018-11-11T13:28:43.162Z,40.53
2018-11-11T13:31:11.197Z,35.60
2018-11-11T13:33:39.258Z,45.97
2018-11-11T13:36:07.297Z,46.47
2018-11-11T13:38:35.476Z,38.23
2018-11-11T13:41:03.458Z,38.23
2018-11-11T13:43:31.522Z,39.47
2018-11-11T13:45:59.539Z,39.33
2018-11-11T13:48:27.602Z,36.60
2018-11-11T13:50:55.677Z,41.37
2018-11-11T13:53:24.078Z,41.23
2018-11-11T13:55:52.155Z,32.63
2018-11-11T13:58:20.258Z,35.97
2018-11-11T14:00:48.346Z,38.20
2018-11-11T14:03:16.362Z,30.67
2018-11-11T14:05:44.370Z,31.07
2018-11-11T14:08:12.608Z,32.10
2018-11-11T14:10:40.509Z,34.70
2018-11-11T14:13:08.605Z,37.80
2018-11-11T14:15:36.629Z,37.67
2018-11-11T14:18:04.968Z,33.67
2018-11-11T14:20:33.026Z,33.57
2018-11-11T14:23:01.046Z,31.83
2018-11-11T14:25:29.986Z,36.17
2018-11-11T14:27:58.073Z,33.63
2018-11-11T14:30:27.279Z,31.40
2018-11-11T14:32:56.295Z,37.83
2018-11-11T14:35:24.629Z,37.20
2018-11-11T14:37:53.116Z,34.03
2018-11-11T14:40:22.582Z,38.73
2018-11-11T14:42:50.642Z,33.43
2018-11-11T14:45:19.376Z,35.70
2018-11-11T14:47:48.974Z,37.40
2018-11-11T14:50:18.029Z,33.30
2018-11-11T14:52:46.575Z,37.10
2018-11-11T14:55:16.915Z,35.57
2018-11-11T14:57:44.961Z,32.50
2018-11-11T15:00:15.654Z,30.87
2018-11-11T15:02:44.150Z,32.53
2018-11-11T15:05:13.493Z,33.23
2018-11-11T15:07:42.369Z,34.33
2018-11-11T15:10:11.773Z,32.97
2018-11-11T15:12:39.852Z,33.37
2018-11-11T15:15:10.917Z,37.30
2018-11-11T15:17:38.930Z,31.07
2018-11-11T15:20:08.166Z,31.97
2018-11-11T15:22:36.077Z,33.93
2018-11-11T15:25:04.461Z,33.43
2018-11-11T15:27:32.494Z,32.70
2018-11-11T15:30:13.044Z,34.47
2018-11-11T15:32:41.278Z,35.80
2018-11-11T15:35:09.312Z,46.97
2018-11-11T15:37:37.697Z,39.43
2018-11-11T15:40:08.174Z,41.57
2018-11-11T15:42:36.437Z,36.57
2018-11-11T15:45:04.857Z,37.80
2018-11-11T15:47:33.096Z,38.17
2018-11-11T15:50:01.293Z,37.40
2018-11-11T15:52:29.495Z,36.07
2018-11-11T15:54:57.507Z,35.50
2018-11-11T15:57:25.530Z,40.80
2018-11-11T15:59:53.579Z,43.77
2018-11-11T16:02:21.627Z,42.63
2018-11-11T16:04:49.646Z,32.33
2018-11-11T16:07:17.691Z,38.90
2018-11-11T16:09:45.707Z,37.93
2018-11-11T16:12:13.766Z,41.43
2018-11-11T16:14:41.765Z,36.80
2018-11-11T16:17:09.782Z,42.03
2018-11-11T16:19:38.017Z,41.40
2018-11-11T16:22:06.049Z,41.30
2018-11-11T16:24:34.174Z,47.30
2018-11-11T16:27:02.262Z,43.17
2018-11-11T16:29:30.367Z,42.47
2018-11-11T16:31:58.434Z,45.77
2018-11-11T16:34:26.555Z,55.80
2018-11-11T16:36:54.603Z,60.73
2018-11-11T16:39:22.763Z,57.20
2018-11-11T16:41:50.816Z,63.30
2018-11-11T16:44:18.852Z,61.83
2018-11-11T16:46:46.906Z,64.60
2018-11-11T16:49:14.989Z,66.20
2018-11-11T16:51:42.997Z,53.37
2018-11-11T16:54:11.124Z,46.47
2018-11-11T16:56:39.121Z,45.37
2018-11-11T16:59:07.455Z,52.67
2018-11-11T17:01:35.593Z,48.47
2018-11-11T17:04:03.702Z,50.43
2018-11-11T17:06:31.709Z,40.83
2018-11-11T17:08:59.765Z,36.00
2018-11-11T17:11:27.830Z,37.77
2018-11-11T17:13:55.894Z,43.33
2018-11-11T17:16:24.045Z,37.93
2018-11-11T17:18:52.046Z,34.67
2018-11-11T17:21:20.144Z,33.70
2018-11-11T17:23:48.140Z,33.33
2018-11-11T17:26:16.174Z,32.00
2018-11-11T17:28:44.311Z,34.13
2018-11-11T17:31:12.434Z,39.83
2018-11-11T17:33:40.525Z,30.77
2018-11-11T17:36:08.616Z,36.97
2018-11-11T17:38:36.597Z,31.70
2018-11-11T17:41:04.658Z,32.40
2018-11-11T17:43:32.693Z,32.97
2018-11-11T17:46:00.713Z,36.97
2018-11-11T17:48:28.855Z,34.27
2018-11-11T17:50:56.798Z,32.73
2018-11-11T17:53:24.881Z,32.40
2018-11-11T17:55:52.948Z,31.27
2018-11-11T17:58:20.957Z,31.70
2018-11-11T18:00:48.970Z,31.37
2018-11-11T18:03:17.105Z,28.33
2018-11-11T18:05:45.119Z,29.93
2018-11-11T18:08:13.251Z,30.80
2018-11-11T18:10:41.342Z,31.07
2018-11-11T18:13:09.335Z,32.80
2018-11-11T18:15:37.366Z,29.43
2018-11-11T18:18:05.663Z,30.20
2018-11-11T18:20:33.995Z,34.03
2018-11-11T18:23:02.759Z,31.17
2018-11-11T18:25:30.779Z,30.70
2018-11-11T18:27:59.037Z,27.53
2018-11-11T18:30:30.161Z,29.40
2018-11-11T18:32:58.237Z,23.20
2018-11-11T18:35:26.288Z,24.40
2018-11-11T18:37:54.358Z,25.80
2018-11-11T18:40:23.639Z,27.80
2018-11-11T18:42:51.698Z,28.67
2018-11-11T18:45:23.122Z,26.47
2018-11-11T18:47:51.720Z,35.03
2018-11-11T18:50:21.378Z,28.77
2018-11-11T18:52:49.420Z,26.63
2018-11-11T18:55:17.438Z,26.13
2018-11-11T18:57:45.822Z,26.25
2018-11-11T19:00:16.205Z,28.07
2018-11-11T19:02:45.113Z,30.87
2018-11-11T19:05:14.141Z,28.87
2018-11-11T19:07:42.461Z,26.60
2018-11-11T19:10:12.964Z,22.67
2018-11-11T19:12:41.951Z,30.13
2018-11-11T19:15:11.329Z,33.87
2018-11-11T19:17:39.641Z,29.27
2018-11-11T19:20:09.183Z,25.33
2018-11-11T19:22:37.962Z,25.83
2018-11-11T19:25:07.858Z,24.00
2018-11-11T19:27:36.027Z,29.03
2018-11-11T19:30:04.573Z,25.37
2018-11-11T19:32:32.646Z,21.50
2018-11-11T19:35:00.653Z,25.10
2018-11-11T19:37:28.684Z,24.87
2018-11-11T19:39:56.765Z,25.77
2018-11-11T19:42:24.929Z,23.27
2018-11-11T19:44:52.943Z,24.37
2018-11-11T19:47:21.006Z,22.37
2018-11-11T19:49:49.177Z,24.17
2018-11-11T19:52:17.216Z,26.27
2018-11-11T19:54:45.307Z,25.80
2018-11-11T19:57:13.683Z,24.83
2018-11-11T19:59:41.710Z,20.67
2018-11-11T20:02:09.774Z,27.40
2018-11-11T20:04:37.993Z,29.23
2018-11-11T20:07:06.437Z,21.80
2018-11-11T20:09:34.494Z,29.77
2018-11-11T20:12:02.610Z,22.93
2018-11-11T20:14:30.612Z,26.60
2018-11-11T20:16:58.670Z,28.63
2018-11-11T20:19:26.685Z,27.87
2018-11-11T20:21:54.763Z,26.83
2018-11-11T20:24:22.858Z,25.97
2018-11-11T20:26:50.930Z,26.10
2018-11-11T20:29:19.051Z,24.17
2018-11-11T20:31:47.062Z,26.67
2018-11-11T20:34:15.163Z,28.13
2018-11-11T20:36:43.158Z,26.80
2018-11-11T20:39:12.734Z,29.17
2018-11-11T20:41:40.793Z,29.03
2018-11-11T20:44:09.557Z,27.30
2018-11-11T20:46:38.275Z,31.90
2018-11-11T20:49:06.629Z,30.07
2018-11-11T20:51:34.761Z,27.87
2018-11-11T20:54:03.094Z,25.17
2018-11-11T20:56:31.185Z,25.17
2018-11-11T20:58:59.205Z,29.83
2018-11-11T21:01:27.268Z,25.37
2018-11-11T21:03:55.287Z,25.90
2018-11-11T21:06:23.342Z,23.90
2018-11-11T21:08:51.378Z,27.83
2018-11-11T21:11:19.421Z,25.60
2018-11-11T21:13:47.458Z,26.37
2018-11-11T21:16:15.554Z,25.13
2018-11-11T21:18:43.566Z,29.53
2018-11-11T21:21:11.601Z,33.33
2018-11-11T21:23:39.881Z,26.30
2018-11-11T21:26:07.906Z,26.13
2018-11-11T21:28:35.926Z,28.30
2018-11-11T21:31:03.982Z,27.73
2018-11-11T21:33:32.027Z,24.27
2018-11-11T21:36:00.070Z,27.67
2018-11-11T21:38:28.141Z,27.13
2018-11-11T21:40:56.234Z,25.40
2018-11-11T21:43:24.305Z,27.17
2018-11-11T21:45:52.460Z,25.03
2018-11-11T21:48:20.443Z,24.00
2018-11-11T21:50:48.513Z,27.33
2018-11-11T21:53:34.319Z,27.23
2018-11-11T21:56:03.061Z,24.20
2018-11-11T21:58:31.118Z,26.80
2018-11-11T22:00:59.114Z,29.97
2018-11-11T22:03:27.300Z,29.50
2018-11-11T22:05:55.762Z,33.93
2018-11-11T22:08:24.103Z,25.30
2018-11-11T22:10:52.669Z,28.67
2018-11-11T22:13:21.273Z,29.07
2018-11-11T22:15:49.672Z,22.70
2018-11-11T22:18:17.956Z,27.60
2018-11-11T22:20:46.265Z,25.30
2018-11-11T22:23:14.306Z,32.40
2018-11-11T22:25:42.353Z,26.37
2018-11-11T22:28:10.449Z,29.90
2018-11-11T22:30:38.446Z,31.00
2018-11-11T22:33:06.462Z,30.10
2018-11-11T22:35:34.521Z,29.97
2018-11-11T22:38:02.698Z,29.60
2018-11-11T22:40:30.721Z,30.63
2018-11-11T22:42:58.829Z,31.20
2018-11-11T22:45:26.890Z,28.40
2018-11-11T22:47:54.929Z,31.93
2018-11-11T22:50:23.030Z,29.83
2018-11-11T22:52:51.092Z,31.70
2018-11-11T22:55:19.125Z,28.37
2018-11-11T22:57:47.268Z,31.73
2018-11-11T23:00:21.395Z,30.20
2018-11-11T23:02:50.094Z,36.40
2018-11-11T23:05:19.208Z,33.30
2018-11-11T23:07:47.339Z,28.70
2018-11-11T23:10:15.453Z,28.70
2018-11-11T23:12:43.545Z,30.83
2018-11-11T23:15:12.498Z,32.03
2018-11-11T23:17:40.581Z,25.90
2018-11-11T23:20:10.067Z,31.20
2018-11-11T23:22:38.295Z,34.57
2018-11-11T23:25:07.580Z,27.87
2018-11-11T23:27:35.753Z,32.97
2018-11-11T23:30:05.288Z,33.70
2018-11-11T23:32:33.357Z,28.30
2018-11-11T23:35:01.472Z,29.10
2018-11-11T23:37:29.534Z,30.73
2018-11-11T23:39:57.613Z,31.17
2018-11-11T23:42:25.794Z,33.87
2018-11-11T23:44:53.846Z,34.33
2018-11-11T23:47:21.959Z,30.13
2018-11-11T23:49:50.156Z,35.17
2018-11-11T23:52:18.250Z,30.70
2018-11-11T23:54:46.309Z,34.90
2018-11-11T23:57:14.718Z,30.87
2018-11-11T23:59:42.728Z,32.07
